M/V Oriole — WDE6982 — position and weather

sailwx.info

Track history (hours):
 
Tides and Currents Weather Stations Pressure Air Temp Water Temp Dewpoint Dewpoint Depression Visibility Wind Speed Wind Dir Waves Ship Positions

M/V Oriole

Owner: NATIVE SON INC., ST. THOMAS, VI. More information available from US FCC via Universal Licensing System and Coast Guard Vessel Documentation Center.

Last reported at 2017-Jun-23 21:59 UTC. Time now 2017-Jun-24 10:37 UTC.
Position N 18°25' W 064°37'.

Length 25 m.

Type: Passenger vessel. MMSI: 366755670.

Date/timePositionNaut miles runAvg speedWind from/ knotsBaromVisibWave heightAir tempDewpointWater temp
2017-Jun-23 21:59N 18°25' W 064°37'612.0
2017-Jun-23 21:31N 18°23' W 064°42'912.2
2017-Jun-23 20:47N 18°20' W 064°51'311.2
2017-Jun-23 20:30N 18°20' W 064°48'4 9.0
2017-Jun-23 20:01N 18°23' W 064°44'2 3.6
2017-Jun-23 19:31N 18°22' W 064°46'5 2.5
2017-Jun-23 17:24N 18°20' W 064°51'3 8.2
2017-Jun-23 17:01N 18°21' W 064°48'611.5
2017-Jun-23 16:30N 18°23' W 064°42'714.4
2017-Jun-23 16:01N 18°20' W 064°49'2 0.8
2017-Jun-23 13:44N 18°20' W 064°51'313.3
2017-Jun-23 13:30N 18°20' W 064°48'4 8.2
2017-Jun-23 13:01N 18°23' W 064°44'1 2.5
2017-Jun-23 12:31N 18°22' W 064°46'4 8.2
2017-Jun-23 12:01N 18°20' W 064°49'1 2.9
2017-Jun-23 11:30N 18°20' W 064°48'2 3.7
2017-Jun-23 11:00N 18°22' W 064°47'5 9.3
2017-Jun-23 10:31N 18°23' W 064°42'4 0.2
2017-Jun-22 12:42N 18°24' W 064°38'524.6
2017-Jun-22 12:30N 18°22' W 064°43'  
Track history (hours):
 
Tides and Currents Weather Stations Pressure Air Temp Water Temp Dewpoint Dewpoint Depression Visibility Wind Speed Wind Dir Waves Ship Positions

M/V Oriole

Owner: NATIVE SON INC., ST. THOMAS, VI. More information available from US FCC via Universal Licensing System and Coast Guard Vessel Documentation Center.

Last reported at 2017-Jun-23 21:59 UTC. Time now 2017-Jun-24 10:37 UTC.
Position N 18°25' W 064°37'.

Length 25 m.

Type: Passenger vessel. MMSI: 366755670.

Date/timePositionNaut miles runAvg speedWind from/ knotsBaromVisibWave heightAir tempDewpointWater temp
2017-Jun-23 21:59N 18°25' W 064°37'612.0
2017-Jun-23 21:31N 18°23' W 064°42'912.2
2017-Jun-23 20:47N 18°20' W 064°51'311.2
2017-Jun-23 20:30N 18°20' W 064°48'4 9.0
2017-Jun-23 20:01N 18°23' W 064°44'2 3.6
2017-Jun-23 19:31N 18°22' W 064°46'5 2.5
2017-Jun-23 17:24N 18°20' W 064°51'3 8.2
2017-Jun-23 17:01N 18°21' W 064°48'611.5
2017-Jun-23 16:30N 18°23' W 064°42'714.4
2017-Jun-23 16:01N 18°20' W 064°49'2 0.8
2017-Jun-23 13:44N 18°20' W 064°51'313.3
2017-Jun-23 13:30N 18°20' W 064°48'4 8.2
2017-Jun-23 13:01N 18°23' W 064°44'1 2.5
2017-Jun-23 12:31N 18°22' W 064°46'4 8.2
2017-Jun-23 12:01N 18°20' W 064°49'1 2.9
2017-Jun-23 11:30N 18°20' W 064°48'2 3.7
2017-Jun-23 11:00N 18°22' W 064°47'5 9.3
2017-Jun-23 10:31N 18°23' W 064°42'4 0.2
2017-Jun-22 12:42N 18°24' W 064°38'524.6
2017-Jun-22 12:30N 18°22' W 064°43'  

Dump ship's entire track history